createdAt,value
2019-03-01T00:00:16.421Z,91.60
2019-03-01T00:02:44.832Z,91.90
2019-03-01T00:05:46.794Z,92.10
2019-03-01T00:08:17.575Z,92.20
2019-03-01T00:11:00.873Z,92.10
2019-03-01T00:13:36.330Z,92.50
2019-03-01T00:16:34.559Z,92.30
2019-03-01T00:19:22.744Z,92.50
2019-03-01T00:22:12.225Z,92.60
2019-03-01T00:24:55.514Z,92.50
2019-03-01T00:27:24.721Z,92.60
2019-03-01T00:30:32.734Z,92.60
2019-03-01T00:33:24.071Z,92.40
2019-03-01T00:36:07.487Z,92.30
2019-03-01T00:38:54.071Z,92.30
2019-03-01T00:41:31.594Z,92.60
2019-03-01T00:44:05.766Z,92.60
2019-03-01T00:46:34.246Z,91.90
2019-03-01T00:49:02.660Z,91.80
2019-03-01T00:51:31.113Z,91.60
2019-03-01T00:53:59.586Z,91.60
2019-03-01T00:56:28.057Z,91.60
2019-03-01T00:58:56.535Z,91.60
2019-03-01T01:01:24.999Z,91.70
2019-03-01T01:03:53.513Z,91.60
2019-03-01T01:06:22.027Z,91.50
2019-03-01T01:08:50.520Z,91.50
2019-03-01T01:11:19.063Z,91.50
2019-03-01T01:13:47.566Z,91.50
2019-03-01T01:16:16.102Z,91.40
2019-03-01T01:18:44.523Z,91.30
2019-03-01T01:21:12.959Z,91.40
2019-03-01T01:23:41.468Z,91.30
2019-03-01T01:26:09.948Z,91.10
2019-03-01T01:28:38.377Z,90.90
2019-03-01T01:31:06.837Z,90.90
2019-03-01T01:33:35.243Z,90.80
2019-03-01T01:36:03.683Z,90.80
2019-03-01T01:38:32.226Z,90.90
2019-03-01T01:41:01.450Z,90.90
2019-03-01T01:43:29.854Z,90.90
2019-03-01T01:45:58.266Z,90.80
2019-03-01T01:48:26.779Z,90.90
2019-03-01T01:50:55.199Z,90.90
2019-03-01T01:53:23.674Z,90.80
2019-03-01T01:55:52.150Z,90.80
2019-03-01T01:58:20.559Z,90.60
2019-03-01T02:00:49.032Z,90.50
2019-03-01T02:03:17.449Z,90.50
2019-03-01T02:05:46.330Z,90.50
2019-03-01T02:08:14.806Z,90.50
2019-03-01T02:11:02.664Z,90.40
2019-03-01T02:13:31.081Z,90.50
2019-03-01T02:15:59.533Z,90.50
2019-03-01T02:18:28.035Z,90.70
2019-03-01T02:20:56.438Z,90.80
2019-03-01T02:23:24.865Z,91.00
2019-03-01T02:25:53.339Z,91.40
2019-03-01T02:28:21.750Z,91.70
2019-03-01T02:30:53.219Z,91.70
2019-03-01T02:33:21.648Z,91.80
2019-03-01T02:35:50.083Z,91.90
2019-03-01T02:38:18.523Z,91.90
2019-03-01T02:40:46.930Z,92.00
2019-03-01T02:43:15.405Z,92.10
2019-03-01T02:45:43.855Z,92.10
2019-03-01T02:48:12.272Z,92.20
2019-03-01T02:50:40.741Z,92.40
2019-03-01T02:53:09.159Z,92.40
2019-03-01T02:55:37.601Z,92.50
2019-03-01T02:58:06.055Z,92.50
2019-03-01T03:00:34.583Z,92.50
2019-03-01T03:03:03.067Z,92.60
2019-03-01T03:05:31.631Z,92.70
2019-03-01T03:08:01.810Z,92.80
2019-03-01T03:10:30.299Z,93.00
2019-03-01T03:13:01.510Z,93.00
2019-03-01T03:15:34.203Z,93.10
2019-03-01T03:18:02.732Z,93.30
2019-03-01T03:20:31.200Z,93.50
2019-03-01T03:22:59.649Z,93.50
2019-03-01T03:25:28.082Z,93.60
2019-03-01T03:27:56.538Z,93.80
2019-03-01T03:30:25.037Z,93.90
2019-03-01T03:32:54.852Z,93.90
2019-03-01T03:35:23.282Z,94.10
2019-03-01T03:37:51.856Z,94.30
2019-03-01T03:40:20.329Z,94.50
2019-03-01T03:42:48.783Z,94.50
2019-03-01T03:45:18.334Z,94.60
2019-03-01T03:47:46.822Z,94.70
2019-03-01T03:50:15.891Z,94.70
2019-03-01T03:52:44.345Z,94.90
2019-03-01T03:55:32.197Z,95.00
2019-03-01T03:58:00.627Z,95.00
2019-03-01T04:00:29.072Z,95.00
2019-03-01T04:02:57.513Z,95.00
2019-03-01T04:05:26.033Z,95.00
2019-03-01T04:07:54.525Z,95.00
2019-03-01T04:10:22.957Z,95.10
2019-03-01T04:12:51.368Z,95.10
2019-03-01T04:15:19.871Z,95.10
2019-03-01T04:17:48.386Z,95.30
2019-03-01T04:20:18.198Z,95.40
2019-03-01T04:22:46.824Z,95.40
2019-03-01T04:25:15.330Z,95.50
2019-03-01T04:27:43.826Z,95.50
2019-03-01T04:30:17.764Z,95.60
2019-03-01T04:32:46.736Z,95.70
2019-03-01T04:35:15.422Z,95.80
2019-03-01T04:37:43.937Z,95.80
2019-03-01T04:40:15.753Z,95.70
2019-03-01T04:42:44.231Z,95.80
2019-03-01T04:45:17.683Z,95.90
2019-03-01T04:47:46.180Z,95.80
2019-03-01T04:50:14.642Z,95.80
2019-03-01T04:52:43.130Z,95.80
2019-03-01T04:55:14.299Z,95.70
2019-03-01T04:57:42.864Z,95.70
2019-03-01T05:00:17.343Z,95.80
2019-03-01T05:02:45.776Z,95.90
2019-03-01T05:05:15.652Z,95.90
2019-03-01T05:07:44.333Z,95.80
2019-03-01T05:10:13.712Z,95.90
2019-03-01T05:12:42.243Z,95.80
2019-03-01T05:15:15.678Z,95.90
2019-03-01T05:17:44.294Z,95.80
2019-03-01T05:20:13.262Z,95.90
2019-03-01T05:22:41.849Z,95.90
2019-03-01T05:25:11.409Z,95.80
2019-03-01T05:27:39.991Z,95.90
2019-03-01T05:30:35.426Z,95.90
2019-03-01T05:33:03.943Z,95.90
2019-03-01T05:35:32.388Z,96.00
2019-03-01T05:38:00.850Z,96.00
2019-03-01T05:40:29.781Z,95.90
2019-03-01T05:42:58.317Z,96.00
2019-03-01T05:45:30.499Z,96.00
2019-03-01T05:47:59.211Z,96.10
2019-03-01T05:50:27.729Z,96.00
2019-03-01T05:52:56.206Z,96.00
2019-03-01T05:55:24.746Z,96.00
2019-03-01T05:58:27.423Z,95.90
2019-03-01T06:01:01.716Z,96.00
2019-03-01T06:04:01.713Z,95.90
2019-03-01T06:06:44.470Z,95.90
2019-03-01T06:09:37.185Z,95.80
2019-03-01T06:12:33.872Z,95.90
2019-03-01T06:15:23.421Z,95.90
2019-03-01T06:18:23.234Z,95.90
2019-03-01T06:20:54.735Z,96.00
2019-03-01T06:23:49.306Z,95.90
2019-03-01T06:26:26.542Z,95.80
2019-03-01T06:29:07.045Z,95.80
2019-03-01T06:31:55.102Z,95.90
2019-03-01T06:34:38.333Z,95.90
2019-03-01T06:37:13.322Z,95.80
2019-03-01T06:40:15.330Z,95.70
2019-03-01T06:43:05.600Z,95.80
2019-03-01T06:45:54.936Z,95.70
2019-03-01T06:48:25.058Z,95.70
2019-03-01T06:50:55.158Z,95.60
2019-03-01T06:53:23.612Z,95.60
2019-03-01T06:55:52.233Z,95.50
2019-03-01T06:58:23.931Z,95.30
2019-03-01T07:00:54.050Z,95.30
2019-03-01T07:03:22.524Z,95.40
2019-03-01T07:05:51.004Z,95.20
2019-03-01T07:08:19.447Z,95.20
2019-03-01T07:10:47.893Z,95.20
2019-03-01T07:13:16.332Z,95.20
2019-03-01T07:15:44.744Z,95.10
2019-03-01T07:18:13.214Z,95.00
2019-03-01T07:20:41.691Z,94.90
2019-03-01T07:23:10.108Z,95.00
2019-03-01T07:25:38.559Z,94.90
2019-03-01T07:28:06.999Z,94.70
2019-03-01T07:30:35.437Z,94.70
2019-03-01T07:33:03.886Z,94.90
2019-03-01T07:35:32.368Z,95.20
2019-03-01T07:38:00.798Z,94.80
2019-03-01T07:40:29.253Z,94.60
2019-03-01T07:42:57.699Z,94.50
2019-03-01T07:45:26.143Z,94.40
2019-03-01T07:47:54.648Z,94.40
2019-03-01T07:50:23.148Z,94.50
2019-03-01T07:52:51.634Z,94.70
2019-03-01T07:55:25.035Z,94.70
2019-03-01T07:57:52.609Z,94.50
2019-03-01T08:00:21.088Z,94.40
2019-03-01T08:02:52.442Z,94.50
2019-03-01T08:05:20.873Z,94.40
2019-03-01T08:07:56.169Z,94.20
2019-03-01T08:10:22.496Z,94.30
2019-03-01T08:12:50.347Z,94.20
2019-03-01T08:15:18.749Z,94.20
2019-03-01T08:17:47.237Z,93.80
2019-03-01T08:20:17.026Z,93.60
2019-03-01T08:22:49.117Z,93.40
2019-03-01T08:25:22.663Z,93.30
2019-03-01T08:27:47.790Z,93.20
2019-03-01T08:30:17.906Z,93.10
2019-03-01T08:32:46.391Z,92.80
2019-03-01T08:35:15.883Z,92.70
2019-03-01T08:37:44.384Z,92.20
2019-03-01T08:40:15.683Z,92.10
2019-03-01T08:42:44.335Z,92.10
2019-03-01T08:45:17.931Z,92.20
2019-03-01T08:47:48.514Z,92.20
2019-03-01T08:50:17.324Z,91.60
2019-03-01T08:52:49.078Z,91.50
2019-03-01T08:55:22.827Z,91.60
2019-03-01T08:57:51.362Z,91.50
2019-03-01T09:00:26.236Z,91.50
2019-03-01T09:02:54.748Z,91.60
2019-03-01T09:05:23.192Z,91.40
2019-03-01T09:07:51.648Z,91.80
2019-03-01T09:10:20.135Z,91.80
2019-03-01T09:12:48.664Z,91.90
2019-03-01T09:15:17.083Z,92.00
2019-03-01T09:17:45.797Z,92.20
2019-03-01T09:20:15.858Z,92.50
2019-03-01T09:22:44.382Z,92.30
2019-03-01T09:25:15.205Z,92.00
2019-03-01T09:27:43.697Z,91.80
2019-03-01T09:30:15.139Z,91.50
2019-03-01T09:32:43.637Z,91.40
2019-03-01T09:35:16.818Z,91.30
2019-03-01T09:37:45.214Z,91.20
2019-03-01T09:40:14.090Z,91.40
2019-03-01T09:42:42.555Z,91.00
2019-03-01T09:45:13.654Z,90.40
2019-03-01T09:47:41.314Z,90.20
2019-03-01T09:50:12.266Z,90.20
2019-03-01T09:52:40.738Z,90.50
2019-03-01T09:55:11.526Z,90.70
2019-03-01T09:57:40.080Z,90.90
2019-03-01T10:00:28.336Z,90.90
2019-03-01T10:02:58.532Z,90.90
2019-03-01T10:05:27.003Z,90.80
2019-03-01T10:07:58.011Z,90.90
2019-03-01T10:10:29.905Z,91.20
2019-03-01T10:12:59.098Z,91.10
2019-03-01T10:15:28.253Z,91.20
2019-03-01T10:17:57.528Z,90.70
2019-03-01T10:20:26.719Z,90.60
2019-03-01T10:22:55.158Z,90.70
2019-03-01T10:25:23.781Z,90.40
2019-03-01T10:27:52.327Z,90.60
2019-03-01T10:30:28.269Z,90.40
2019-03-01T10:32:58.460Z,90.40
2019-03-01T10:35:26.978Z,89.90
2019-03-01T10:37:55.531Z,89.80
2019-03-01T10:40:31.841Z,89.20
2019-03-01T10:43:00.301Z,88.30
2019-03-01T10:45:32.413Z,86.40
2019-03-01T10:48:00.845Z,85.10
2019-03-01T10:50:29.278Z,83.80
2019-03-01T10:52:57.714Z,84.20
2019-03-01T10:55:26.223Z,85.50
2019-03-01T10:57:54.883Z,85.70
2019-03-01T11:00:26.300Z,86.30
2019-03-01T11:02:55.621Z,86.70
2019-03-01T11:05:25.120Z,86.50
2019-03-01T11:07:54.486Z,87.40
2019-03-01T11:10:32.359Z,88.10
2019-03-01T11:13:00.813Z,88.70
2019-03-01T11:15:29.375Z,89.00
2019-03-01T11:17:57.794Z,88.70
2019-03-01T11:20:26.664Z,88.70
2019-03-01T11:22:55.326Z,88.60
2019-03-01T11:25:25.030Z,88.20
2019-03-01T11:27:53.626Z,87.30
2019-03-01T11:30:30.442Z,86.70
2019-03-01T11:32:58.930Z,85.10
2019-03-01T11:35:27.490Z,84.10
2019-03-01T11:37:56.098Z,82.70
2019-03-01T11:40:30.108Z,82.90
2019-03-01T11:42:58.625Z,82.40
2019-03-01T11:45:27.153Z,82.90
2019-03-01T11:47:55.589Z,82.70
2019-03-01T11:50:24.851Z,82.80
2019-03-01T11:52:53.386Z,83.00
2019-03-01T11:55:21.992Z,81.80
2019-03-01T11:57:50.497Z,81.80
2019-03-01T12:00:23.419Z,81.80
2019-03-01T12:02:52.019Z,82.20
2019-03-01T12:05:21.091Z,81.90
2019-03-01T12:07:49.700Z,82.50
2019-03-01T12:10:20.484Z,82.90
2019-03-01T12:12:49.030Z,83.30
2019-03-01T12:15:17.495Z,83.30
2019-03-01T12:17:45.973Z,82.60
2019-03-01T12:20:16.600Z,82.20
2019-03-01T12:22:45.058Z,81.60
2019-03-01T12:25:13.751Z,80.80
2019-03-01T12:27:42.324Z,80.60
2019-03-01T12:30:15.799Z,80.40
2019-03-01T12:32:44.267Z,80.60
2019-03-01T12:35:12.789Z,80.80
2019-03-01T12:37:41.251Z,80.50
2019-03-01T12:40:21.470Z,80.40
2019-03-01T12:42:49.939Z,80.70
2019-03-01T12:45:18.371Z,80.90
2019-03-01T12:47:46.846Z,81.40
2019-03-01T12:50:15.530Z,81.80
2019-03-01T12:52:44.078Z,82.00
2019-03-01T12:55:15.309Z,82.00
2019-03-01T12:57:43.734Z,82.10
2019-03-01T13:00:19.539Z,82.20
2019-03-01T13:02:48.130Z,82.30
2019-03-01T13:05:18.427Z,82.60
2019-03-01T13:07:46.887Z,82.60
2019-03-01T13:10:17.899Z,82.60
2019-03-01T13:12:46.340Z,82.80
2019-03-01T13:15:14.920Z,82.70
2019-03-01T13:17:43.434Z,82.50
2019-03-01T13:20:17.203Z,82.50
2019-03-01T13:22:46.290Z,82.80
2019-03-01T13:25:15.735Z,82.50
2019-03-01T13:27:44.274Z,82.50
2019-03-01T13:30:21.221Z,82.00
2019-03-01T13:32:49.658Z,82.10
2019-03-01T13:35:22.304Z,82.30
2019-03-01T13:37:51.917Z,82.40
2019-03-01T13:40:24.217Z,82.40
2019-03-01T13:42:52.073Z,82.20
2019-03-01T13:45:23.113Z,82.00
2019-03-01T13:47:51.671Z,81.90
2019-03-01T13:50:21.334Z,81.00
2019-03-01T13:52:50.306Z,80.90
2019-03-01T13:55:22.127Z,80.90
2019-03-01T13:57:50.039Z,80.60
2019-03-01T14:00:20.734Z,80.60
2019-03-01T14:02:49.299Z,80.50
2019-03-01T14:05:18.514Z,79.60
2019-03-01T14:07:47.628Z,79.10
2019-03-01T14:10:20.740Z,78.40
2019-03-01T14:12:49.776Z,78.10
2019-03-01T14:15:18.393Z,77.90
2019-03-01T14:17:46.951Z,78.10
2019-03-01T14:20:20.549Z,77.80
2019-03-01T14:22:49.188Z,77.80
2019-03-01T14:25:18.155Z,78.10
2019-03-01T14:27:47.115Z,78.70
2019-03-01T14:30:20.632Z,78.50
2019-03-01T14:32:49.101Z,79.00
2019-03-01T14:35:20.506Z,79.90
2019-03-01T14:37:47.849Z,79.50
2019-03-01T14:40:37.170Z,80.00
2019-03-01T14:43:05.690Z,80.20
2019-03-01T14:45:35.267Z,80.00
2019-03-01T14:48:05.034Z,80.00
2019-03-01T14:50:34.767Z,80.20
2019-03-01T14:53:03.417Z,80.00
2019-03-01T14:55:37.878Z,80.00
2019-03-01T14:58:12.459Z,79.80
2019-03-01T15:00:49.595Z,79.70
2019-03-01T15:03:21.333Z,78.90
2019-03-01T15:05:49.877Z,79.30
2019-03-01T15:08:18.310Z,79.40
2019-03-01T15:10:46.824Z,79.70
2019-03-01T15:13:15.411Z,80.20
2019-03-01T15:15:43.850Z,80.40
2019-03-01T15:18:12.464Z,80.70
2019-03-01T15:20:40.971Z,80.30
2019-03-01T15:23:09.563Z,80.40
2019-03-01T15:25:38.116Z,80.40
2019-03-01T15:28:06.734Z,80.80
2019-03-01T15:30:35.240Z,80.60
2019-03-01T15:33:03.791Z,81.20
2019-03-01T15:35:32.264Z,80.80
2019-03-01T15:38:00.782Z,80.70
2019-03-01T15:40:31.373Z,80.40
2019-03-01T15:42:59.443Z,80.50
2019-03-01T15:45:27.934Z,80.70
2019-03-01T15:47:58.821Z,80.80
2019-03-01T15:50:27.373Z,81.10
2019-03-01T15:52:56.727Z,81.10
2019-03-01T15:55:25.387Z,81.30
2019-03-01T15:57:56.397Z,81.80
2019-03-01T16:00:25.560Z,82.00
2019-03-01T16:02:54.510Z,82.20
2019-03-01T16:05:22.983Z,82.40
2019-03-01T16:07:51.467Z,82.70
2019-03-01T16:10:20.754Z,82.90
2019-03-01T16:12:49.286Z,83.40
2019-03-01T16:15:17.818Z,83.30
2019-03-01T16:17:46.298Z,83.50
2019-03-01T16:20:18.638Z,83.70
2019-03-01T16:22:47.153Z,83.50
2019-03-01T16:25:20.584Z,83.40
2019-03-01T16:27:50.760Z,83.50
2019-03-01T16:30:20.535Z,83.80
2019-03-01T16:32:50.419Z,83.50
2019-03-01T16:35:22.263Z,83.50
2019-03-01T16:37:52.590Z,83.60
2019-03-01T16:40:21.065Z,83.90
2019-03-01T16:42:54.119Z,84.30
2019-03-01T16:45:21.155Z,84.10
2019-03-01T16:47:58.519Z,84.40
2019-03-01T16:50:27.021Z,85.00
2019-03-01T16:52:55.495Z,84.80
2019-03-01T16:55:27.732Z,85.00
2019-03-01T16:58:06.133Z,85.20
2019-03-01T17:00:27.033Z,85.10
2019-03-01T17:03:07.048Z,85.40
2019-03-01T17:05:38.382Z,85.60
2019-03-01T17:08:06.106Z,85.90
2019-03-01T17:10:34.893Z,85.80
2019-03-01T17:13:03.315Z,85.90
2019-03-01T17:15:31.785Z,85.90
2019-03-01T17:18:00.240Z,86.00
2019-03-01T17:20:28.996Z,86.20
2019-03-01T17:22:59.784Z,86.20
2019-03-01T17:25:27.726Z,86.40
2019-03-01T17:27:56.557Z,86.40
2019-03-01T17:30:25.827Z,86.70
2019-03-01T17:32:54.286Z,86.60
2019-03-01T17:35:22.759Z,86.40
2019-03-01T17:37:51.302Z,86.30
2019-03-01T17:40:20.183Z,86.10
2019-03-01T17:42:48.869Z,86.30
2019-03-01T17:45:22.215Z,85.90
2019-03-01T17:47:56.553Z,85.40
2019-03-01T17:50:25.059Z,85.30
2019-03-01T17:52:53.512Z,85.20
2019-03-01T17:55:28.977Z,85.50
2019-03-01T17:57:57.388Z,85.40
2019-03-01T18:00:32.449Z,85.30
2019-03-01T18:03:00.859Z,85.60
2019-03-01T18:05:30.961Z,85.20
2019-03-01T18:07:59.978Z,85.10
2019-03-01T18:10:32.103Z,85.00
2019-03-01T18:12:59.836Z,85.20
2019-03-01T18:15:28.492Z,85.30
2019-03-01T18:17:56.954Z,85.30
2019-03-01T18:20:25.374Z,85.10
2019-03-01T18:22:54.369Z,85.90
2019-03-01T18:25:26.115Z,85.10
2019-03-01T18:27:53.907Z,85.60
2019-03-01T18:30:30.112Z,84.80
2019-03-01T18:32:58.641Z,84.90
2019-03-01T18:35:27.356Z,85.10
2019-03-01T18:37:56.088Z,85.10
2019-03-01T18:40:24.889Z,85.10
2019-03-01T18:42:53.350Z,85.40
2019-03-01T18:45:23.148Z,85.70
2019-03-01T18:47:51.634Z,86.00
2019-03-01T18:50:37.427Z,86.10
2019-03-01T18:53:05.918Z,86.20
2019-03-01T18:55:34.341Z,86.10
2019-03-01T18:58:02.783Z,86.00
2019-03-01T19:00:39.535Z,86.10
2019-03-01T19:03:08.062Z,86.10
2019-03-01T19:05:40.224Z,86.00
2019-03-01T19:08:06.884Z,86.00
2019-03-01T19:10:36.151Z,85.90
2019-03-01T19:13:05.157Z,86.10
2019-03-01T19:15:33.630Z,86.40
2019-03-01T19:18:21.453Z,86.10
2019-03-01T19:20:52.353Z,86.40
2019-03-01T19:23:20.812Z,86.30
2019-03-01T19:25:49.249Z,86.10
2019-03-01T19:28:17.692Z,86.00
2019-03-01T19:30:49.244Z,85.60
2019-03-01T19:33:17.258Z,85.40
2019-03-01T19:36:05.260Z,85.50
2019-03-01T19:38:33.684Z,85.60
2019-03-01T19:41:02.133Z,85.80
2019-03-01T19:43:30.556Z,86.10
2019-03-01T19:46:01.413Z,86.30
2019-03-01T19:48:29.862Z,86.60
2019-03-01T19:51:01.469Z,86.80
2019-03-01T19:53:28.470Z,86.80
2019-03-01T19:55:56.998Z,87.00
2019-03-01T19:58:25.454Z,87.10
2019-03-01T20:00:53.894Z,86.80
2019-03-01T20:03:22.342Z,86.80
2019-03-01T20:05:50.822Z,86.70
2019-03-01T20:08:19.343Z,87.10
2019-03-01T20:10:50.951Z,87.40
2019-03-01T20:13:18.198Z,87.80
2019-03-01T20:15:47.330Z,87.90
2019-03-01T20:18:15.942Z,88.00
2019-03-01T20:20:44.534Z,88.00
2019-03-01T20:23:13.060Z,87.90
2019-03-01T20:25:41.494Z,88.00
2019-03-01T20:28:11.545Z,88.00
2019-03-01T20:30:40.630Z,88.30
2019-03-01T20:33:09.086Z,88.50
2019-03-01T20:35:37.507Z,88.30
2019-03-01T20:38:06.082Z,88.50
2019-03-01T20:40:34.574Z,88.50
2019-03-01T20:43:06.784Z,88.50
2019-03-01T20:45:38.430Z,88.40
2019-03-01T20:48:06.887Z,88.60
2019-03-01T20:50:36.585Z,87.70
2019-03-01T20:53:05.407Z,87.90
2019-03-01T20:55:37.203Z,87.60
2019-03-01T20:58:04.321Z,87.50
2019-03-01T21:00:33.004Z,87.70
2019-03-01T21:03:01.585Z,87.80
2019-03-01T21:05:30.634Z,88.10
2019-03-01T21:07:59.289Z,88.40
2019-03-01T21:10:29.535Z,88.60
2019-03-01T21:12:58.055Z,88.50
2019-03-01T21:15:27.149Z,88.30
2019-03-01T21:17:57.310Z,88.20
2019-03-01T21:20:26.870Z,87.70
2019-03-01T21:22:55.313Z,86.90
2019-03-01T21:25:24.600Z,86.90
2019-03-01T21:27:53.116Z,86.80
2019-03-01T21:30:30.496Z,86.70
2019-03-01T21:32:58.954Z,86.20
2019-03-01T21:35:27.393Z,86.00
2019-03-01T21:37:55.985Z,85.20
2019-03-01T21:40:24.414Z,85.10
2019-03-01T21:42:57.291Z,85.60
2019-03-01T21:45:24.249Z,85.00
2019-03-01T21:47:52.809Z,85.30
2019-03-01T21:50:21.428Z,85.40
2019-03-01T21:52:50.005Z,85.40
2019-03-01T21:55:43.005Z,85.40
2019-03-01T21:58:11.444Z,84.90
2019-03-01T22:00:39.920Z,84.30
2019-03-01T22:03:08.402Z,84.30
2019-03-01T22:05:36.900Z,84.70
2019-03-01T22:08:05.455Z,84.80
2019-03-01T22:10:35.686Z,85.00
2019-03-01T22:13:04.173Z,86.00
2019-03-01T22:15:32.632Z,85.30
2019-03-01T22:18:01.184Z,85.30
2019-03-01T22:20:29.790Z,85.20
2019-03-01T22:22:58.285Z,85.30
2019-03-01T22:25:26.722Z,85.70
2019-03-01T22:27:57.599Z,86.40
2019-03-01T22:30:38.611Z,87.00
2019-03-01T22:33:07.057Z,87.50
2019-03-01T22:35:35.543Z,88.10
2019-03-01T22:38:04.565Z,88.40
2019-03-01T22:40:34.032Z,88.40
2019-03-01T22:43:02.469Z,88.30
2019-03-01T22:45:31.171Z,88.50
2019-03-01T22:47:59.784Z,89.00
2019-03-01T22:50:28.263Z,88.80
2019-03-01T22:52:56.770Z,88.70
2019-03-01T22:55:25.227Z,88.80
2019-03-01T22:57:53.697Z,88.80
2019-03-01T23:00:29.595Z,88.50
2019-03-01T23:03:18.929Z,88.50
2019-03-01T23:05:47.774Z,88.20
2019-03-01T23:08:16.300Z,88.50
2019-03-01T23:10:44.822Z,87.80
2019-03-01T23:13:16.828Z,88.00
2019-03-01T23:15:44.438Z,88.10
2019-03-01T23:18:13.215Z,88.40
2019-03-01T23:20:41.713Z,88.70
2019-03-01T23:23:10.144Z,88.90
2019-03-01T23:25:38.653Z,89.30
2019-03-01T23:28:08.058Z,89.40
2019-03-01T23:30:37.313Z,89.60
2019-03-01T23:33:05.741Z,89.80
2019-03-01T23:35:34.187Z,90.10
2019-03-01T23:38:02.602Z,90.20
2019-03-01T23:40:32.765Z,90.30
2019-03-01T23:43:01.506Z,90.30
2019-03-01T23:45:29.933Z,90.60
2019-03-01T23:47:58.386Z,90.30
2019-03-01T23:50:26.814Z,90.60
2019-03-01T23:52:58.889Z,90.30
2019-03-01T23:55:25.414Z,90.40
2019-03-01T23:57:53.932Z,90.60
